createdAt,value
2022-08-26T00:00:24.276Z,69.46
2022-08-26T00:02:57.718Z,69.36
2022-08-26T00:05:30.721Z,69.79
2022-08-26T00:08:03.598Z,69.60
2022-08-26T00:10:36.091Z,69.12
2022-08-26T00:13:11.006Z,69.42
2022-08-26T00:15:43.470Z,69.27
2022-08-26T00:18:21.936Z,69.22
2022-08-26T00:20:55.148Z,69.08
2022-08-26T00:23:28.870Z,68.83
2022-08-26T00:26:04.426Z,69.51
2022-08-26T00:28:38.455Z,69.69
2022-08-26T00:31:12.958Z,69.96
2022-08-26T00:33:45.671Z,69.80
2022-08-26T00:36:20.234Z,69.46
2022-08-26T00:38:53.018Z,69.37
2022-08-26T00:41:25.758Z,69.53
2022-08-26T00:43:59.874Z,69.36
2022-08-26T00:46:37.313Z,69.82
2022-08-26T00:49:13.772Z,69.31
2022-08-26T00:51:51.084Z,69.60
2022-08-26T00:54:27.399Z,69.68
2022-08-26T00:57:03.951Z,69.91
2022-08-26T00:59:38.927Z,70.28
2022-08-26T01:02:20.832Z,69.86
2022-08-26T01:04:56.591Z,69.27
2022-08-26T01:07:31.232Z,69.45
2022-08-26T01:10:08.333Z,69.61
2022-08-26T01:12:44.803Z,69.85
2022-08-26T01:15:22.149Z,69.77
2022-08-26T01:17:54.760Z,69.66
2022-08-26T01:20:35.496Z,69.84
2022-08-26T01:23:11.063Z,69.58
2022-08-26T01:25:47.465Z,69.82
2022-08-26T01:28:28.268Z,69.63
2022-08-26T01:31:25.060Z,69.50
2022-08-26T01:34:03.442Z,69.51
2022-08-26T01:36:37.437Z,69.27
2022-08-26T01:39:11.440Z,69.82
2022-08-26T01:41:46.349Z,69.80
2022-08-26T01:44:22.388Z,69.76
2022-08-26T01:46:57.264Z,69.83
2022-08-26T01:49:31.959Z,69.72
2022-08-26T01:52:09.028Z,69.87
2022-08-26T01:54:46.284Z,70.00
2022-08-26T01:57:21.085Z,69.89
2022-08-26T01:59:58.580Z,69.93
2022-08-26T02:02:31.090Z,69.83
2022-08-26T02:05:06.831Z,70.02
2022-08-26T02:07:40.706Z,70.21
2022-08-26T02:10:15.631Z,70.24
2022-08-26T02:12:49.016Z,70.01
2022-08-26T02:15:21.622Z,70.20
2022-08-26T02:17:54.554Z,69.99
2022-08-26T02:20:30.035Z,70.32
2022-08-26T02:23:02.729Z,70.67
2022-08-26T02:25:44.788Z,70.74
2022-08-26T02:28:18.019Z,70.55
2022-08-26T02:30:52.186Z,70.33
2022-08-26T02:33:24.600Z,70.13
2022-08-26T02:35:57.909Z,70.30
2022-08-26T02:38:30.538Z,70.31
2022-08-26T02:41:04.881Z,70.56
2022-08-26T02:43:40.357Z,70.32
2022-08-26T02:46:12.888Z,70.53
2022-08-26T02:48:54.174Z,70.05
2022-08-26T02:51:26.563Z,69.73
2022-08-26T02:53:58.917Z,70.02
2022-08-26T02:56:34.608Z,69.98
2022-08-26T02:59:08.144Z,70.00
2022-08-26T03:01:41.778Z,69.53
2022-08-26T03:04:14.262Z,69.55
2022-08-26T03:06:52.744Z,69.53
2022-08-26T03:09:25.629Z,69.71
2022-08-26T03:11:59.857Z,69.62
2022-08-26T03:14:32.193Z,69.45
2022-08-26T03:17:05.696Z,69.51
2022-08-26T03:19:38.729Z,69.68
2022-08-26T03:22:14.521Z,69.30
2022-08-26T03:24:47.832Z,69.29
2022-08-26T03:27:23.514Z,69.12
2022-08-26T03:30:15.134Z,69.17
2022-08-26T03:32:47.640Z,69.20
2022-08-26T03:35:20.596Z,69.42
2022-08-26T03:37:55.605Z,69.28
2022-08-26T03:40:29.011Z,69.13
2022-08-26T03:43:04.615Z,69.70
2022-08-26T03:45:37.876Z,69.85
2022-08-26T03:48:11.512Z,69.83
2022-08-26T03:50:44.685Z,69.72
2022-08-26T03:53:17.200Z,69.73
2022-08-26T03:55:53.205Z,69.92
2022-08-26T03:58:26.984Z,69.70
2022-08-26T04:01:00.018Z,69.50
2022-08-26T04:03:51.040Z,69.54
2022-08-26T04:06:23.637Z,69.50
2022-08-26T04:08:58.841Z,69.67
2022-08-26T04:11:34.237Z,69.57
2022-08-26T04:14:11.092Z,69.51
2022-08-26T04:16:43.977Z,69.74
2022-08-26T04:19:17.821Z,69.50
2022-08-26T04:21:53.308Z,69.75
2022-08-26T04:24:27.033Z,69.66
2022-08-26T04:27:02.599Z,69.71
2022-08-26T04:29:36.909Z,69.50
2022-08-26T04:32:11.484Z,69.80
2022-08-26T04:34:44.891Z,69.55
2022-08-26T04:37:17.475Z,69.42
2022-08-26T04:39:51.626Z,69.49
2022-08-26T04:42:26.242Z,69.26
2022-08-26T04:45:00.783Z,69.15
2022-08-26T04:47:33.212Z,69.02
2022-08-26T04:50:07.348Z,68.91
2022-08-26T04:52:40.367Z,69.02
2022-08-26T04:55:13.511Z,68.48
2022-08-26T04:57:47.205Z,67.86
2022-08-26T05:00:22.301Z,67.11
2022-08-26T05:02:55.218Z,66.17
2022-08-26T05:05:27.790Z,65.71
2022-08-26T05:08:00.476Z,64.53
2022-08-26T05:10:35.132Z,64.32
2022-08-26T05:13:10.961Z,63.74
2022-08-26T05:15:47.468Z,63.42
2022-08-26T05:18:22.841Z,62.67
2022-08-26T05:20:56.030Z,62.11
2022-08-26T05:23:32.789Z,61.95
2022-08-26T05:26:08.781Z,61.17
2022-08-26T05:28:44.154Z,61.32
2022-08-26T05:31:20.793Z,61.23
2022-08-26T05:33:57.725Z,61.48
2022-08-26T05:36:34.943Z,60.98
2022-08-26T05:39:10.671Z,61.00
2022-08-26T05:41:44.799Z,60.80
2022-08-26T05:44:19.067Z,60.54
2022-08-26T05:46:54.419Z,60.47
2022-08-26T05:49:27.020Z,59.76
2022-08-26T05:52:00.106Z,59.33
2022-08-26T05:54:34.953Z,58.57
2022-08-26T05:57:07.597Z,58.06
2022-08-26T05:59:40.152Z,58.13
2022-08-26T06:02:16.275Z,57.72
2022-08-26T06:04:50.516Z,57.38
2022-08-26T06:07:44.699Z,57.23
2022-08-26T06:10:33.196Z,57.14
2022-08-26T06:13:09.234Z,56.49
2022-08-26T06:15:47.886Z,56.37
2022-08-26T06:18:28.916Z,55.90
2022-08-26T06:21:12.186Z,55.53
2022-08-26T06:24:04.217Z,55.83
2022-08-26T06:26:37.189Z,55.39
2022-08-26T06:29:09.821Z,55.32
2022-08-26T06:31:42.314Z,55.10
2022-08-26T06:34:16.268Z,55.17
2022-08-26T06:36:49.765Z,54.68
2022-08-26T06:39:25.800Z,54.61
2022-08-26T06:41:59.131Z,54.20
2022-08-26T06:44:32.402Z,53.61
2022-08-26T06:47:05.642Z,53.04
2022-08-26T06:49:42.366Z,53.02
2022-08-26T06:52:22.499Z,53.18
2022-08-26T06:54:57.097Z,52.39
2022-08-26T06:57:32.946Z,51.41
2022-08-26T07:00:11.913Z,51.31
2022-08-26T07:02:46.222Z,50.85
2022-08-26T07:05:21.002Z,50.81
2022-08-26T07:07:53.713Z,50.46
2022-08-26T07:10:27.405Z,49.97
2022-08-26T07:13:00.985Z,49.59
2022-08-26T07:15:35.922Z,49.29
2022-08-26T07:18:09.354Z,49.47
2022-08-26T07:20:43.548Z,49.70
2022-08-26T07:23:16.070Z,49.39
2022-08-26T07:25:49.731Z,49.63
2022-08-26T07:28:23.047Z,50.09
2022-08-26T07:30:55.757Z,49.26
2022-08-26T07:33:29.696Z,49.12
2022-08-26T07:36:04.373Z,49.33
2022-08-26T07:38:38.123Z,48.89
2022-08-26T07:41:11.122Z,49.18
2022-08-26T07:43:44.092Z,49.77
2022-08-26T07:46:20.862Z,48.68
2022-08-26T07:49:00.195Z,48.73
2022-08-26T07:51:34.818Z,48.96
2022-08-26T07:54:07.818Z,49.23
2022-08-26T07:56:40.296Z,49.62
2022-08-26T07:59:18.018Z,49.72
2022-08-26T08:01:50.902Z,50.24
2022-08-26T08:04:26.546Z,50.50
2022-08-26T08:07:00.624Z,50.98
2022-08-26T08:09:33.324Z,50.84
2022-08-26T08:12:06.301Z,51.77
2022-08-26T08:14:38.732Z,50.93
2022-08-26T08:19:44.838Z,50.66
2022-08-26T08:22:19.748Z,50.97
2022-08-26T08:24:53.277Z,50.71
2022-08-26T08:27:26.001Z,50.97
2022-08-26T08:29:58.833Z,51.06
2022-08-26T08:32:31.357Z,50.77
2022-08-26T08:35:10.917Z,50.74
2022-08-26T08:37:46.203Z,50.46
2022-08-26T08:40:19.251Z,50.39
2022-08-26T08:42:56.802Z,50.83
2022-08-26T08:45:36.744Z,50.61
2022-08-26T08:48:16.372Z,50.65
2022-08-26T08:50:52.336Z,50.41
2022-08-26T08:53:31.916Z,50.19
2022-08-26T08:56:11.737Z,50.02
2022-08-26T08:58:52.815Z,50.00
2022-08-26T09:01:42.442Z,49.96
2022-08-26T09:04:32.879Z,49.24
2022-08-26T09:07:10.650Z,48.83
2022-08-26T09:09:47.437Z,48.97
2022-08-26T09:12:29.875Z,49.00
2022-08-26T09:15:06.129Z,48.50
2022-08-26T09:17:48.129Z,48.13
2022-08-26T09:20:29.153Z,48.26
2022-08-26T09:23:01.943Z,48.53
2022-08-26T09:25:46.160Z,48.37
2022-08-26T09:28:20.879Z,48.44
2022-08-26T09:31:12.032Z,48.36
2022-08-26T09:33:44.821Z,47.82
2022-08-26T09:36:24.822Z,47.76
2022-08-26T09:38:57.460Z,47.68
2022-08-26T09:41:33.608Z,47.58
2022-08-26T09:44:15.753Z,47.19
2022-08-26T09:46:55.687Z,47.35
2022-08-26T09:49:35.783Z,47.54
2022-08-26T09:52:14.402Z,47.74
2022-08-26T09:55:01.221Z,48.07
2022-08-26T09:57:46.645Z,48.20
2022-08-26T10:00:30.181Z,48.14
2022-08-26T10:03:04.771Z,47.95
2022-08-26T10:05:42.766Z,47.75
2022-08-26T10:08:24.953Z,47.78
2022-08-26T10:11:00.184Z,47.29
2022-08-26T10:13:37.785Z,47.05
2022-08-26T10:16:17.868Z,47.05
2022-08-26T10:18:59.934Z,46.31
2022-08-26T10:21:38.274Z,46.19
2022-08-26T10:24:12.228Z,45.71
2022-08-26T10:27:00.017Z,45.68
2022-08-26T10:29:39.975Z,45.40
2022-08-26T10:32:20.346Z,45.20
2022-08-26T10:34:52.903Z,44.39
2022-08-26T10:37:33.571Z,44.46
2022-08-26T10:40:11.332Z,44.11
2022-08-26T10:42:49.857Z,43.60
2022-08-26T10:45:27.509Z,43.25
2022-08-26T10:48:05.648Z,43.11
2022-08-26T10:50:41.766Z,42.58
2022-08-26T10:53:25.251Z,42.28
2022-08-26T10:56:03.088Z,41.99
2022-08-26T10:58:48.416Z,41.97
2022-08-26T11:01:43.104Z,42.12
2022-08-26T11:04:37.494Z,42.54
2022-08-26T11:07:32.841Z,43.18
2022-08-26T11:11:03.152Z,43.50
2022-08-26T11:14:09.087Z,43.54
2022-08-26T11:16:45.084Z,41.45
2022-08-26T11:20:00.817Z,42.04
2022-08-26T11:22:41.515Z,40.91
2022-08-26T11:25:21.245Z,40.57
2022-08-26T11:27:57.055Z,40.17
2022-08-26T11:30:57.003Z,41.60
2022-08-26T11:33:57.217Z,42.23
2022-08-26T11:36:57.385Z,40.75
2022-08-26T11:39:36.817Z,40.09
2022-08-26T11:42:22.118Z,40.04
2022-08-26T11:44:58.220Z,39.54
2022-08-26T11:47:32.126Z,39.24
2022-08-26T11:50:17.108Z,39.57
2022-08-26T11:52:54.592Z,39.63
2022-08-26T11:55:28.317Z,38.63
2022-08-26T11:58:04.711Z,38.69
2022-08-26T12:00:50.753Z,39.45
2022-08-26T12:03:26.791Z,38.54
2022-08-26T12:06:00.800Z,38.47
2022-08-26T12:08:35.174Z,38.50
2022-08-26T12:11:10.069Z,38.17
2022-08-26T12:13:42.928Z,38.49
2022-08-26T12:16:25.629Z,38.59
2022-08-26T12:18:58.526Z,38.09
2022-08-26T12:21:35.121Z,37.94
2022-08-26T12:24:07.880Z,37.77
2022-08-26T12:26:40.694Z,37.95
2022-08-26T12:29:27.163Z,38.22
2022-08-26T12:32:09.660Z,38.00
2022-08-26T12:34:43.486Z,37.43
2022-08-26T12:37:18.916Z,37.01
2022-08-26T12:39:51.637Z,37.11
2022-08-26T12:42:41.345Z,37.96
2022-08-26T12:45:25.745Z,36.69
2022-08-26T12:48:01.402Z,36.76
2022-08-26T12:50:36.114Z,36.64
2022-08-26T12:53:18.509Z,37.29
2022-08-26T12:55:54.065Z,36.47
2022-08-26T12:58:30.046Z,36.57
2022-08-26T13:01:22.305Z,37.31
2022-08-26T13:03:54.960Z,36.14
2022-08-26T13:06:30.071Z,35.82
2022-08-26T13:09:25.503Z,35.85
2022-08-26T13:11:58.860Z,35.99
2022-08-26T13:14:31.364Z,36.03
2022-08-26T13:17:04.106Z,36.00
2022-08-26T13:19:36.689Z,36.13
2022-08-26T13:22:12.541Z,36.27
2022-08-26T13:24:46.436Z,36.08
2022-08-26T13:27:20.728Z,36.22
2022-08-26T13:29:53.818Z,36.16
2022-08-26T13:32:27.533Z,35.93
2022-08-26T13:35:00.321Z,35.59
2022-08-26T13:37:38.270Z,35.78
2022-08-26T13:40:15.450Z,35.83
2022-08-26T13:42:49.756Z,35.67
2022-08-26T13:45:22.683Z,36.06
2022-08-26T13:47:55.215Z,35.74
2022-08-26T13:50:27.833Z,35.63
2022-08-26T13:53:00.562Z,35.99
2022-08-26T13:55:34.366Z,35.85
2022-08-26T13:58:07.003Z,35.92
2022-08-26T14:00:40.403Z,36.07
2022-08-26T14:03:13.633Z,35.96
2022-08-26T14:05:46.080Z,36.02
2022-08-26T14:08:18.808Z,35.95
2022-08-26T14:10:52.748Z,36.18
2022-08-26T14:13:25.491Z,36.43
2022-08-26T14:16:01.492Z,36.20
2022-08-26T14:18:41.055Z,36.26
2022-08-26T14:21:14.809Z,36.03
2022-08-26T14:23:47.361Z,36.14
2022-08-26T14:26:29.393Z,35.84
2022-08-26T14:29:04.124Z,36.36
2022-08-26T14:31:37.920Z,35.77
2022-08-26T14:34:12.768Z,35.83
2022-08-26T14:36:45.119Z,35.20
2022-08-26T14:39:17.563Z,35.78
2022-08-26T14:41:55.326Z,35.70
2022-08-26T14:44:30.712Z,36.07
2022-08-26T14:47:06.603Z,35.69
2022-08-26T14:49:38.920Z,35.62
2022-08-26T14:52:11.414Z,35.59
2022-08-26T14:54:44.087Z,35.58
2022-08-26T14:57:18.717Z,35.57
2022-08-26T14:59:51.164Z,35.43
2022-08-26T15:02:32.412Z,35.81
2022-08-26T15:05:09.960Z,35.83
2022-08-26T15:07:45.687Z,36.07
2022-08-26T15:10:19.031Z,35.76
2022-08-26T15:12:55.526Z,35.99
2022-08-26T15:15:30.009Z,36.33
2022-08-26T15:18:02.446Z,36.55
2022-08-26T15:20:34.934Z,36.46
2022-08-26T15:23:07.800Z,36.73
2022-08-26T15:25:43.258Z,37.06
2022-08-26T15:28:17.176Z,37.31
2022-08-26T15:30:50.171Z,37.70
2022-08-26T15:33:22.769Z,37.92
2022-08-26T15:35:55.945Z,38.28
2022-08-26T15:38:30.132Z,38.43
2022-08-26T15:41:04.400Z,38.80
2022-08-26T15:43:38.606Z,39.38
2022-08-26T15:46:12.287Z,39.25
2022-08-26T15:48:45.100Z,39.76
2022-08-26T15:51:22.949Z,39.99
2022-08-26T15:53:56.611Z,40.66
2022-08-26T15:56:31.141Z,40.63
2022-08-26T15:59:07.601Z,40.61
2022-08-26T16:01:40.721Z,41.28
2022-08-26T16:04:15.370Z,42.37
2022-08-26T16:06:51.648Z,42.92
2022-08-26T16:09:27.236Z,43.88
2022-08-26T16:12:03.182Z,44.74
2022-08-26T16:14:37.173Z,45.48
2022-08-26T16:17:09.680Z,45.74
2022-08-26T16:19:42.661Z,46.36
2022-08-26T16:22:15.062Z,47.07
2022-08-26T16:24:47.699Z,47.88
2022-08-26T16:27:20.889Z,48.34
2022-08-26T16:29:57.114Z,49.45
2022-08-26T16:32:31.253Z,49.53
2022-08-26T16:35:07.565Z,50.31
2022-08-26T16:37:40.379Z,50.94
2022-08-26T16:40:12.937Z,51.57
2022-08-26T16:42:45.523Z,52.08
2022-08-26T16:45:19.650Z,52.81
2022-08-26T16:47:52.658Z,52.99
2022-08-26T16:50:25.246Z,53.85
2022-08-26T16:52:57.617Z,54.60
2022-08-26T16:55:30.209Z,55.15
2022-08-26T16:58:02.842Z,55.25
2022-08-26T17:00:37.391Z,55.57
2022-08-26T17:03:10.103Z,55.95
2022-08-26T17:05:42.850Z,56.05
2022-08-26T17:08:27.446Z,56.02
2022-08-26T17:11:01.841Z,56.59
2022-08-26T17:13:36.191Z,57.03
2022-08-26T17:16:12.684Z,57.18
2022-08-26T17:18:45.201Z,57.52
2022-08-26T17:21:18.075Z,57.91
2022-08-26T17:23:50.659Z,58.03
2022-08-26T17:26:23.410Z,58.37
2022-08-26T17:28:56.065Z,58.70
2022-08-26T17:31:30.078Z,59.14
2022-08-26T17:34:02.944Z,58.51
2022-08-26T17:36:35.748Z,59.47
2022-08-26T17:39:08.645Z,59.43
2022-08-26T17:41:43.235Z,59.41
2022-08-26T17:44:15.956Z,59.61
2022-08-26T17:46:50.048Z,59.96
2022-08-26T17:49:22.693Z,59.94
2022-08-26T17:51:57.863Z,60.22
2022-08-26T17:54:31.693Z,60.32
2022-08-26T17:57:05.303Z,60.47
2022-08-26T17:59:43.136Z,60.42
2022-08-26T18:02:17.457Z,60.83
2022-08-26T18:04:50.262Z,60.80
2022-08-26T18:07:22.931Z,60.67
2022-08-26T18:09:55.502Z,60.68
2022-08-26T18:12:28.285Z,60.93
2022-08-26T18:15:01.712Z,61.21
2022-08-26T18:17:39.214Z,61.57
2022-08-26T18:20:14.356Z,61.59
2022-08-26T18:22:48.020Z,61.54
2022-08-26T18:25:20.920Z,61.64
2022-08-26T18:27:53.669Z,61.76
2022-08-26T18:30:27.012Z,62.01
2022-08-26T18:33:01.057Z,62.11
2022-08-26T18:35:37.776Z,62.11
2022-08-26T18:38:11.849Z,62.17
2022-08-26T18:40:45.629Z,62.15
2022-08-26T18:43:18.077Z,62.29
2022-08-26T18:46:00.537Z,62.56
2022-08-26T18:48:39.412Z,62.28
2022-08-26T18:51:17.381Z,62.64
2022-08-26T18:53:50.624Z,62.81
2022-08-26T18:56:24.627Z,62.82
2022-08-26T18:58:59.078Z,62.67
2022-08-26T19:01:38.046Z,62.77
2022-08-26T19:04:15.467Z,62.74
2022-08-26T19:06:50.837Z,62.81
2022-08-26T19:09:26.382Z,63.01
2022-08-26T19:12:00.973Z,63.08
2022-08-26T19:14:35.925Z,63.14
2022-08-26T19:17:09.370Z,63.21
2022-08-26T19:19:43.334Z,63.20
2022-08-26T19:22:19.921Z,63.10
2022-08-26T19:24:52.435Z,63.03
2022-08-26T19:27:25.000Z,63.31
2022-08-26T19:29:57.777Z,63.48
2022-08-26T19:32:30.599Z,63.15
2022-08-26T19:35:06.120Z,63.49
2022-08-26T19:37:38.602Z,63.17
2022-08-26T19:40:11.952Z,63.51
2022-08-26T19:42:44.507Z,63.71
2022-08-26T19:45:25.143Z,63.88
2022-08-26T19:47:58.673Z,63.69
2022-08-26T19:50:34.695Z,63.85
2022-08-26T19:53:07.102Z,63.94
2022-08-26T19:55:39.810Z,63.80
2022-08-26T19:58:12.317Z,63.82
2022-08-26T20:00:44.941Z,64.01
2022-08-26T20:03:17.485Z,64.04
2022-08-26T20:05:51.312Z,64.16
2022-08-26T20:08:23.820Z,63.92
2022-08-26T20:10:57.828Z,63.75
2022-08-26T20:13:30.519Z,63.98
2022-08-26T20:16:03.369Z,64.38
2022-08-26T20:18:54.281Z,64.64
2022-08-26T20:21:29.635Z,64.33
2022-08-26T20:24:04.639Z,64.55
2022-08-26T20:26:38.755Z,64.60
2022-08-26T20:29:13.458Z,64.44
2022-08-26T20:31:46.637Z,64.29
2022-08-26T20:34:19.621Z,64.19
2022-08-26T20:36:53.554Z,63.84
2022-08-26T20:39:29.659Z,64.17
2022-08-26T20:42:03.296Z,64.48
2022-08-26T20:44:35.817Z,64.28
2022-08-26T20:47:09.225Z,64.20
2022-08-26T20:49:41.682Z,64.20
2022-08-26T20:52:16.370Z,64.66
2022-08-26T20:54:48.814Z,64.59
2022-08-26T20:57:22.431Z,65.02
2022-08-26T20:59:54.842Z,64.89
2022-08-26T21:02:28.326Z,65.34
2022-08-26T21:05:00.801Z,64.55
2022-08-26T21:07:34.753Z,64.84
2022-08-26T21:10:08.455Z,64.90
2022-08-26T21:12:41.216Z,65.05
2022-08-26T21:15:13.861Z,65.08
2022-08-26T21:17:46.278Z,65.16
2022-08-26T21:20:18.822Z,65.34
2022-08-26T21:22:52.930Z,65.51
2022-08-26T21:25:25.973Z,65.25
2022-08-26T21:27:58.511Z,65.24
2022-08-26T21:30:30.983Z,65.38
2022-08-26T21:33:03.574Z,65.16
2022-08-26T21:35:36.043Z,65.23
2022-08-26T21:38:10.094Z,65.73
2022-08-26T21:40:42.714Z,65.50
2022-08-26T21:43:25.994Z,65.55
2022-08-26T21:46:14.706Z,66.12
2022-08-26T21:48:50.901Z,66.11
2022-08-26T21:51:26.425Z,65.74
2022-08-26T21:54:01.937Z,65.70
2022-08-26T21:56:39.654Z,65.41
2022-08-26T21:59:13.367Z,65.64
2022-08-26T22:01:46.093Z,65.76
2022-08-26T22:04:18.725Z,65.47
2022-08-26T22:06:52.616Z,65.60
2022-08-26T22:09:28.098Z,65.50
2022-08-26T22:12:01.212Z,65.61
2022-08-26T22:14:34.326Z,65.84
2022-08-26T22:17:07.158Z,65.76
2022-08-26T22:19:45.597Z,65.54
2022-08-26T22:22:18.933Z,65.46
2022-08-26T22:24:52.838Z,65.28
2022-08-26T22:27:25.300Z,65.60
2022-08-26T22:29:57.931Z,65.53
2022-08-26T22:32:30.411Z,65.30
2022-08-26T22:35:03.064Z,65.34
2022-08-26T22:37:55.535Z,65.37
2022-08-26T22:40:31.133Z,65.41
2022-08-26T22:43:04.628Z,65.76
2022-08-26T22:45:42.196Z,65.64
2022-08-26T22:48:16.557Z,65.44
2022-08-26T22:50:50.350Z,65.32
2022-08-26T22:53:22.774Z,65.21
2022-08-26T22:55:56.839Z,65.59
2022-08-26T22:58:30.903Z,65.57
2022-08-26T23:01:05.847Z,66.06
2022-08-26T23:03:38.724Z,65.70
2022-08-26T23:06:11.456Z,65.44
2022-08-26T23:08:46.440Z,65.62
2022-08-26T23:11:20.418Z,65.83
2022-08-26T23:13:52.965Z,65.61
2022-08-26T23:16:25.664Z,65.63
2022-08-26T23:18:58.150Z,65.66
2022-08-26T23:21:30.858Z,65.78
2022-08-26T23:24:03.923Z,66.00
2022-08-26T23:26:39.405Z,66.14
2022-08-26T23:29:13.664Z,66.11
2022-08-26T23:31:46.603Z,65.88
2022-08-26T23:34:37.913Z,66.13
2022-08-26T23:37:10.521Z,65.61
2022-08-26T23:39:42.952Z,65.39
2022-08-26T23:42:16.924Z,65.75
2022-08-26T23:44:49.477Z,65.44
2022-08-26T23:47:22.690Z,65.33
2022-08-26T23:49:55.201Z,65.59
2022-08-26T23:52:47.007Z,65.72
2022-08-26T23:55:19.721Z,66.01
2022-08-26T23:57:53.926Z,66.19
